createdAt,value
2023-03-18T00:00:23.401Z,4.40
2023-03-18T00:02:40.431Z,4.65
2023-03-18T00:04:57.795Z,4.55
2023-03-18T00:07:14.775Z,4.28
2023-03-18T00:09:31.839Z,4.20
2023-03-18T00:11:49.104Z,4.20
2023-03-18T00:14:06.020Z,3.85
2023-03-18T00:16:22.995Z,4.10
2023-03-18T00:18:39.979Z,4.18
2023-03-18T00:20:57.986Z,4.35
2023-03-18T00:23:16.215Z,4.15
2023-03-18T00:25:33.448Z,3.90
2023-03-18T00:27:50.515Z,4.35
2023-03-18T00:30:07.479Z,4.32
2023-03-18T00:32:24.702Z,4.88
2023-03-18T00:34:41.589Z,4.07
2023-03-18T00:36:59.613Z,3.70
2023-03-18T00:39:16.683Z,4.03
2023-03-18T00:41:33.711Z,4.05
2023-03-18T00:43:50.745Z,4.60
2023-03-18T00:46:08.069Z,4.28
2023-03-18T00:48:25.301Z,4.43
2023-03-18T00:50:42.327Z,4.18
2023-03-18T00:53:00.326Z,4.28
2023-03-18T00:55:18.346Z,4.07
2023-03-18T00:57:35.556Z,4.15
2023-03-18T00:59:52.611Z,4.47
2023-03-18T01:02:09.912Z,4.88
2023-03-18T01:04:28.180Z,4.80
2023-03-18T01:06:45.521Z,4.35
2023-03-18T01:09:02.852Z,4.00
2023-03-18T01:11:20.122Z,4.57
2023-03-18T01:13:37.170Z,4.13
2023-03-18T01:15:54.258Z,4.05
2023-03-18T01:18:11.436Z,4.10
2023-03-18T01:20:28.475Z,5.13
2023-03-18T01:22:45.650Z,6.20
2023-03-18T01:25:02.855Z,6.18
2023-03-18T01:27:20.540Z,6.22
2023-03-18T01:29:37.815Z,6.47
2023-03-18T01:31:55.214Z,6.10
2023-03-18T01:34:12.429Z,6.13
2023-03-18T01:36:29.357Z,6.18
2023-03-18T01:38:46.444Z,5.90
2023-03-18T01:41:03.537Z,6.35
2023-03-18T01:43:22.015Z,5.45
2023-03-18T01:45:39.398Z,6.30
2023-03-18T01:47:56.320Z,6.03
2023-03-18T01:50:13.381Z,6.05
2023-03-18T01:52:30.262Z,6.05
2023-03-18T01:54:47.309Z,6.85
2023-03-18T01:57:04.207Z,6.75
2023-03-18T01:59:21.490Z,6.68
2023-03-18T02:01:39.614Z,6.43
2023-03-18T02:03:56.465Z,7.10
2023-03-18T02:06:13.779Z,6.40
2023-03-18T02:08:30.681Z,6.00
2023-03-18T02:10:47.708Z,7.00
2023-03-18T02:13:04.749Z,6.38
2023-03-18T02:15:21.734Z,6.68
2023-03-18T02:17:38.715Z,6.47
2023-03-18T02:19:55.786Z,5.90
2023-03-18T02:22:12.724Z,6.18
2023-03-18T02:24:29.772Z,5.70
2023-03-18T02:26:46.765Z,6.03
2023-03-18T02:29:03.793Z,5.43
2023-03-18T02:31:20.849Z,5.88
2023-03-18T02:33:38.129Z,5.75
2023-03-18T02:35:55.392Z,6.13
2023-03-18T02:38:12.524Z,5.80
2023-03-18T02:40:29.853Z,6.88
2023-03-18T02:42:46.889Z,7.07
2023-03-18T02:45:03.954Z,6.45
2023-03-18T02:47:20.897Z,6.70
2023-03-18T02:49:37.794Z,6.78
2023-03-18T02:51:55.742Z,6.28
2023-03-18T02:54:12.770Z,6.70
2023-03-18T02:56:29.777Z,6.20
2023-03-18T02:58:46.802Z,6.55
2023-03-18T03:01:03.826Z,7.03
2023-03-18T03:03:20.783Z,6.75
2023-03-18T03:05:37.868Z,6.63
2023-03-18T03:07:55.108Z,6.57
2023-03-18T03:10:12.106Z,6.32
2023-03-18T03:12:29.179Z,6.30
2023-03-18T03:14:46.275Z,6.22
2023-03-18T03:17:04.343Z,6.93
2023-03-18T03:19:21.353Z,6.65
2023-03-18T03:21:38.654Z,5.80
2023-03-18T03:23:56.719Z,6.75
2023-03-18T03:26:13.549Z,6.03
2023-03-18T03:28:31.825Z,5.90
2023-03-18T03:30:48.837Z,6.22
2023-03-18T03:33:06.507Z,6.68
2023-03-18T03:35:26.436Z,5.80
2023-03-18T03:37:43.345Z,5.93
2023-03-18T03:40:00.372Z,6.10
2023-03-18T03:42:17.397Z,5.97
2023-03-18T03:44:34.476Z,6.25
2023-03-18T03:46:51.463Z,6.43
2023-03-18T03:49:08.500Z,6.57
2023-03-18T03:51:25.428Z,7.40
2023-03-18T03:53:42.393Z,7.63
2023-03-18T03:55:59.444Z,6.95
2023-03-18T03:58:16.437Z,7.40
2023-03-18T04:00:33.805Z,7.38
2023-03-18T04:02:51.097Z,7.25
2023-03-18T04:05:08.125Z,7.63
2023-03-18T04:07:25.050Z,7.22
2023-03-18T04:09:42.295Z,7.22
2023-03-18T04:11:59.335Z,7.10
2023-03-18T04:14:16.195Z,7.63
2023-03-18T04:16:33.133Z,6.20
2023-03-18T04:18:50.528Z,6.68
2023-03-18T04:21:07.431Z,6.82
2023-03-18T04:23:24.694Z,6.80
2023-03-18T04:25:41.894Z,6.65
2023-03-18T04:27:58.924Z,7.30
2023-03-18T04:30:15.940Z,6.75
2023-03-18T04:32:33.057Z,7.18
2023-03-18T04:34:50.394Z,6.40
2023-03-18T04:37:07.342Z,6.25
2023-03-18T04:39:24.236Z,6.30
2023-03-18T04:41:41.164Z,6.63
2023-03-18T04:43:58.157Z,6.72
2023-03-18T04:46:15.173Z,6.57
2023-03-18T04:48:32.116Z,6.60
2023-03-18T04:50:49.340Z,7.03
2023-03-18T04:53:07.368Z,6.75
2023-03-18T04:55:24.618Z,7.05
2023-03-18T04:57:42.008Z,6.78
2023-03-18T04:59:59.049Z,6.63
2023-03-18T05:02:16.081Z,6.60
2023-03-18T05:04:33.307Z,6.80
2023-03-18T05:06:50.256Z,6.72
2023-03-18T05:09:07.171Z,6.88
2023-03-18T05:11:24.350Z,6.38
2023-03-18T05:13:41.364Z,6.70
2023-03-18T05:15:58.406Z,6.88
2023-03-18T05:18:15.312Z,6.75
2023-03-18T05:20:33.280Z,6.70
2023-03-18T05:22:50.517Z,7.70
2023-03-18T05:25:07.495Z,6.85
2023-03-18T05:27:24.777Z,7.53
2023-03-18T05:29:42.104Z,8.80
2023-03-18T05:31:59.238Z,9.43
2023-03-18T05:34:16.554Z,10.18
2023-03-18T05:36:33.660Z,8.68
2023-03-18T05:38:50.929Z,8.57
2023-03-18T05:41:08.956Z,8.10
2023-03-18T05:43:26.191Z,8.40
2023-03-18T05:45:43.358Z,7.80
2023-03-18T05:48:00.657Z,8.52
2023-03-18T05:50:17.543Z,8.95
2023-03-18T05:52:34.824Z,7.57
2023-03-18T05:54:51.839Z,8.02
2023-03-18T05:57:09.037Z,7.80
2023-03-18T05:59:26.153Z,7.22
2023-03-18T06:01:43.168Z,7.47
2023-03-18T06:04:00.058Z,7.10
2023-03-18T06:06:16.951Z,8.30
2023-03-18T06:08:33.991Z,8.35
2023-03-18T06:10:50.909Z,8.05
2023-03-18T06:13:07.836Z,8.38
2023-03-18T06:15:24.874Z,9.00
2023-03-18T06:17:41.858Z,8.10
2023-03-18T06:19:58.749Z,7.95
2023-03-18T06:22:15.813Z,8.07
2023-03-18T06:24:32.814Z,8.05
2023-03-18T06:26:49.737Z,8.57
2023-03-18T06:29:06.724Z,7.95
2023-03-18T06:31:23.893Z,7.95
2023-03-18T06:33:41.260Z,8.30
2023-03-18T06:35:59.347Z,7.60
2023-03-18T06:38:16.279Z,8.38
2023-03-18T06:40:33.266Z,8.00
2023-03-18T06:42:50.292Z,8.05
2023-03-18T06:45:07.408Z,7.70
2023-03-18T06:47:24.732Z,14.10
2023-03-18T06:49:41.641Z,8.93
2023-03-18T06:51:58.687Z,8.57
2023-03-18T06:54:15.728Z,8.75
2023-03-18T06:56:32.714Z,9.23
2023-03-18T06:58:49.735Z,8.85
2023-03-18T07:01:06.840Z,9.40
2023-03-18T07:03:24.799Z,8.63
2023-03-18T07:05:41.740Z,7.85
2023-03-18T07:07:58.669Z,7.70
2023-03-18T07:10:15.701Z,17.27
2023-03-18T07:12:32.774Z,12.00
2023-03-18T07:14:49.673Z,8.80
2023-03-18T07:17:07.549Z,7.32
2023-03-18T07:19:24.574Z,7.10
2023-03-18T07:21:41.603Z,7.82
2023-03-18T07:23:58.648Z,8.05
2023-03-18T07:26:15.585Z,7.20
2023-03-18T07:28:32.897Z,11.02
2023-03-18T07:30:50.037Z,9.70
2023-03-18T07:33:08.240Z,11.43
2023-03-18T07:35:25.292Z,9.48
2023-03-18T07:37:42.538Z,8.45
2023-03-18T07:39:59.654Z,7.97
2023-03-18T07:42:16.892Z,7.60
2023-03-18T07:44:34.137Z,7.28
2023-03-18T07:46:51.075Z,6.93
2023-03-18T07:49:07.994Z,8.02
2023-03-18T07:51:25.321Z,6.95
2023-03-18T07:53:42.572Z,6.63
2023-03-18T07:55:59.507Z,5.90
2023-03-18T07:58:16.604Z,13.60
2023-03-18T08:00:33.665Z,8.55
2023-03-18T08:02:50.698Z,9.40
2023-03-18T08:05:07.710Z,8.43
2023-03-18T08:07:24.785Z,6.47
2023-03-18T08:09:42.072Z,6.70
2023-03-18T08:11:58.965Z,5.60
2023-03-18T08:14:15.977Z,5.50
2023-03-18T08:16:33.343Z,4.68
2023-03-18T08:18:50.240Z,5.18
2023-03-18T08:21:08.510Z,4.75
2023-03-18T08:23:25.512Z,4.65
2023-03-18T08:25:42.746Z,4.32
2023-03-18T08:27:59.755Z,4.60
2023-03-18T08:30:17.012Z,3.97
2023-03-18T08:32:34.313Z,4.00
2023-03-18T08:34:51.737Z,3.60
2023-03-18T08:37:08.685Z,3.80
2023-03-18T08:39:25.729Z,4.30
2023-03-18T08:41:44.782Z,4.18
2023-03-18T08:44:02.819Z,3.45
2023-03-18T08:46:19.765Z,3.50
2023-03-18T08:48:36.874Z,3.33
2023-03-18T08:50:55.072Z,3.08
2023-03-18T08:53:13.366Z,3.10
2023-03-18T08:55:30.252Z,2.80
2023-03-18T08:57:47.547Z,3.03
2023-03-18T09:00:04.817Z,3.25
2023-03-18T09:02:22.106Z,3.53
2023-03-18T09:04:39.154Z,3.65
2023-03-18T09:06:56.245Z,3.42
2023-03-18T09:09:13.556Z,2.90
2023-03-18T09:11:30.664Z,2.45
2023-03-18T09:13:47.697Z,2.38
2023-03-18T09:16:04.950Z,2.60
2023-03-18T09:18:21.975Z,2.20
2023-03-18T09:20:39.114Z,2.13
2023-03-18T09:22:56.049Z,2.35
2023-03-18T09:25:13.336Z,2.60
2023-03-18T09:27:30.197Z,2.58
2023-03-18T09:29:47.551Z,2.88
2023-03-18T09:32:04.883Z,3.10
2023-03-18T09:34:22.110Z,3.22
2023-03-18T09:36:39.158Z,2.05
2023-03-18T09:38:56.440Z,2.20
2023-03-18T09:41:13.379Z,1.90
2023-03-18T09:43:30.321Z,2.10
2023-03-18T09:45:47.684Z,2.30
2023-03-18T09:48:04.598Z,2.03
2023-03-18T09:50:21.808Z,2.20
2023-03-18T09:52:38.875Z,2.22
2023-03-18T09:54:56.133Z,2.22
2023-03-18T09:57:13.453Z,2.25
2023-03-18T09:59:30.344Z,1.80
2023-03-18T10:01:47.670Z,1.70
2023-03-18T10:04:04.711Z,2.00
2023-03-18T10:06:21.703Z,1.90
2023-03-18T10:08:38.584Z,1.92
2023-03-18T10:10:55.588Z,1.88
2023-03-18T10:13:12.802Z,1.65
2023-03-18T10:15:30.131Z,1.80
2023-03-18T10:17:47.151Z,1.60
2023-03-18T10:20:04.193Z,1.73
2023-03-18T10:22:21.226Z,2.00
2023-03-18T10:24:39.114Z,1.83
2023-03-18T10:26:56.354Z,2.20
2023-03-18T10:29:13.444Z,1.92
2023-03-18T10:31:30.748Z,2.05
2023-03-18T10:33:48.130Z,1.80
2023-03-18T10:36:05.163Z,1.85
2023-03-18T10:38:22.174Z,2.10
2023-03-18T10:40:39.479Z,2.55
2023-03-18T10:42:56.835Z,2.42
2023-03-18T10:45:13.845Z,3.10
2023-03-18T10:47:30.932Z,3.75
2023-03-18T10:49:48.259Z,2.88
2023-03-18T10:52:06.327Z,3.33
2023-03-18T10:54:23.409Z,3.00
2023-03-18T10:56:41.544Z,2.63
2023-03-18T10:58:58.452Z,2.58
2023-03-18T11:01:17.439Z,2.40
2023-03-18T11:03:37.387Z,2.30
2023-03-18T11:05:54.389Z,2.33
2023-03-18T11:08:11.694Z,2.90
2023-03-18T11:10:29.002Z,2.80
2023-03-18T11:12:45.981Z,2.45
2023-03-18T11:15:03.033Z,2.20
2023-03-18T11:17:20.118Z,2.30
2023-03-18T11:19:37.440Z,2.50
2023-03-18T11:21:54.488Z,2.33
2023-03-18T11:24:11.528Z,2.28
2023-03-18T11:26:28.507Z,2.33
2023-03-18T11:28:45.616Z,2.40
2023-03-18T11:31:02.912Z,3.05
2023-03-18T11:33:20.170Z,2.80
2023-03-18T11:35:38.253Z,3.30
2023-03-18T11:37:55.318Z,3.72
2023-03-18T11:40:12.375Z,4.13
2023-03-18T11:42:29.692Z,4.00
2023-03-18T11:44:47.945Z,4.03
2023-03-18T11:47:05.310Z,5.15
2023-03-18T11:49:22.371Z,5.20
2023-03-18T11:51:40.811Z,6.15
2023-03-18T11:53:57.825Z,5.90
2023-03-18T11:56:15.086Z,6.95
2023-03-18T11:58:32.111Z,7.00
2023-03-18T12:00:49.377Z,6.95
2023-03-18T12:03:06.382Z,6.68
2023-03-18T12:05:23.488Z,6.80
2023-03-18T12:07:40.740Z,5.70
2023-03-18T12:09:57.699Z,3.47
2023-03-18T12:12:14.675Z,3.10
2023-03-18T12:14:31.761Z,3.20
2023-03-18T12:16:49.167Z,2.80
2023-03-18T12:19:06.236Z,2.00
2023-03-18T12:21:23.282Z,2.13
2023-03-18T12:23:40.592Z,2.40
2023-03-18T12:25:58.839Z,2.20
2023-03-18T12:28:16.214Z,1.85
2023-03-18T12:30:33.784Z,2.08
2023-03-18T12:32:51.189Z,2.40
2023-03-18T12:35:08.187Z,2.00
2023-03-18T12:37:25.230Z,1.73
2023-03-18T12:39:42.264Z,2.15
2023-03-18T12:41:59.589Z,1.60
2023-03-18T12:44:16.516Z,1.60
2023-03-18T12:46:33.584Z,1.83
2023-03-18T12:48:51.879Z,1.83
2023-03-18T12:51:08.828Z,1.85
2023-03-18T12:53:26.122Z,1.80
2023-03-18T12:55:43.378Z,1.60
2023-03-18T12:58:00.297Z,1.90
2023-03-18T13:00:17.699Z,1.65
2023-03-18T13:02:34.911Z,1.65
2023-03-18T13:04:53.789Z,1.35
2023-03-18T13:07:12.108Z,1.95
2023-03-18T13:09:29.180Z,1.80
2023-03-18T13:11:46.471Z,1.60
2023-03-18T13:14:03.442Z,1.30
2023-03-18T13:16:20.757Z,1.55
2023-03-18T13:18:38.070Z,1.88
2023-03-18T13:20:55.070Z,1.58
2023-03-18T13:23:11.931Z,1.60
2023-03-18T13:25:28.984Z,1.50
2023-03-18T13:27:46.109Z,1.40
2023-03-18T13:30:03.335Z,2.17
2023-03-18T13:32:21.559Z,1.58
2023-03-18T13:34:38.452Z,1.70
2023-03-18T13:36:55.434Z,1.73
2023-03-18T13:39:12.658Z,1.60
2023-03-18T13:41:30.542Z,1.60
2023-03-18T13:43:47.648Z,1.48
2023-03-18T13:46:04.940Z,1.50
2023-03-18T13:48:22.016Z,1.80
2023-03-18T13:50:38.992Z,1.55
2023-03-18T13:52:56.358Z,1.52
2023-03-18T13:55:14.798Z,1.45
2023-03-18T13:57:31.727Z,2.90
2023-03-18T13:59:49.991Z,2.05
2023-03-18T14:02:07.252Z,2.40
2023-03-18T14:04:24.200Z,2.55
2023-03-18T14:06:41.189Z,1.77
2023-03-18T14:08:58.184Z,1.85
2023-03-18T14:11:15.420Z,1.60
2023-03-18T14:13:32.360Z,1.50
2023-03-18T14:15:49.436Z,1.83
2023-03-18T14:18:06.378Z,1.92
2023-03-18T14:20:23.796Z,1.55
2023-03-18T14:22:41.235Z,1.45
2023-03-18T14:24:58.132Z,1.88
2023-03-18T14:27:15.055Z,1.73
2023-03-18T14:29:32.067Z,2.13
2023-03-18T14:31:50.157Z,2.22
2023-03-18T14:34:07.086Z,1.88
2023-03-18T14:36:24.334Z,2.00
2023-03-18T14:38:41.662Z,1.77
2023-03-18T14:40:58.687Z,1.73
2023-03-18T14:43:15.811Z,1.65
2023-03-18T14:45:32.974Z,1.40
2023-03-18T14:47:50.199Z,1.75
2023-03-18T14:50:07.137Z,1.73
2023-03-18T14:52:24.164Z,1.77
2023-03-18T14:54:41.181Z,1.92
2023-03-18T14:56:58.032Z,1.50
2023-03-18T14:59:15.043Z,1.50
2023-03-18T15:01:32.340Z,1.92
2023-03-18T15:03:49.239Z,1.60
2023-03-18T15:06:06.234Z,1.80
2023-03-18T15:08:24.247Z,1.90
2023-03-18T15:10:41.349Z,1.65
2023-03-18T15:12:58.403Z,1.50
2023-03-18T15:15:15.289Z,1.92
2023-03-18T15:17:32.388Z,1.35
2023-03-18T15:19:49.416Z,1.73
2023-03-18T15:22:06.291Z,1.60
2023-03-18T15:24:23.557Z,1.33
2023-03-18T15:26:41.556Z,1.65
2023-03-18T15:28:58.470Z,2.05
2023-03-18T15:31:15.484Z,1.85
2023-03-18T15:33:32.548Z,1.83
2023-03-18T15:35:49.938Z,1.70
2023-03-18T15:38:07.240Z,1.77
2023-03-18T15:40:24.252Z,1.70
2023-03-18T15:42:41.366Z,1.60
2023-03-18T15:44:58.324Z,1.73
2023-03-18T15:47:16.343Z,1.45
2023-03-18T15:49:33.617Z,1.98
2023-03-18T15:51:50.649Z,1.60
2023-03-18T15:54:07.744Z,1.70
2023-03-18T15:56:24.673Z,2.00
2023-03-18T15:58:41.653Z,1.65
2023-03-18T16:00:58.909Z,1.60
2023-03-18T16:03:16.338Z,1.70
2023-03-18T16:05:33.444Z,2.03
2023-03-18T16:07:50.437Z,1.80
2023-03-18T16:10:07.525Z,1.60
2023-03-18T16:12:24.536Z,2.03
2023-03-18T16:14:41.544Z,1.70
2023-03-18T16:16:58.545Z,1.70
2023-03-18T16:19:15.608Z,1.77
2023-03-18T16:21:32.682Z,24.48
2023-03-18T16:23:49.908Z,17.25
2023-03-18T16:26:06.943Z,9.35
2023-03-18T16:28:23.902Z,4.85
2023-03-18T16:30:41.088Z,3.63
2023-03-18T16:32:58.040Z,2.47
2023-03-18T16:35:15.065Z,8.55
2023-03-18T16:37:32.124Z,6.28
2023-03-18T16:39:49.174Z,5.95
2023-03-18T16:42:06.472Z,4.63
2023-03-18T16:44:24.479Z,5.88
2023-03-18T16:46:41.375Z,4.10
2023-03-18T16:48:59.459Z,4.40
2023-03-18T16:51:16.471Z,3.78
2023-03-18T16:53:33.709Z,3.30
2023-03-18T16:55:50.601Z,2.60
2023-03-18T16:58:07.589Z,3.20
2023-03-18T17:00:24.712Z,2.60
2023-03-18T17:02:41.744Z,2.45
2023-03-18T17:04:58.725Z,2.47
2023-03-18T17:07:15.763Z,2.05
2023-03-18T17:09:33.086Z,2.20
2023-03-18T17:11:51.079Z,2.00
2023-03-18T17:14:09.528Z,2.33
2023-03-18T17:16:27.816Z,2.75
2023-03-18T17:18:45.083Z,30.20
2023-03-18T17:21:01.991Z,24.45
2023-03-18T17:23:19.955Z,29.15
2023-03-18T17:25:37.234Z,39.83
2023-03-18T17:27:54.154Z,36.13
2023-03-18T17:30:11.049Z,33.40
2023-03-18T17:32:29.255Z,28.50
2023-03-18T17:34:46.376Z,16.15
2023-03-18T17:37:03.655Z,17.05
2023-03-18T17:39:20.908Z,12.52
2023-03-18T17:41:38.145Z,12.07
2023-03-18T17:43:55.465Z,8.65
2023-03-18T17:46:12.531Z,3.40
2023-03-18T17:48:29.801Z,3.85
2023-03-18T17:50:46.698Z,4.10
2023-03-18T17:53:03.773Z,2.75
2023-03-18T17:55:22.460Z,3.05
2023-03-18T17:57:39.603Z,3.33
2023-03-18T17:59:56.822Z,2.20
2023-03-18T18:02:15.046Z,2.75
2023-03-18T18:04:31.976Z,2.97
2023-03-18T18:06:50.032Z,2.60
2023-03-18T18:09:07.114Z,2.67
2023-03-18T18:11:24.269Z,2.63
2023-03-18T18:13:41.284Z,2.22
2023-03-18T18:15:58.207Z,2.10
2023-03-18T18:18:15.071Z,2.08
2023-03-18T18:20:32.315Z,2.13
2023-03-18T18:22:49.228Z,2.50
2023-03-18T18:25:07.095Z,2.30
2023-03-18T18:27:24.111Z,2.78
2023-03-18T18:29:41.445Z,3.38
2023-03-18T18:31:58.347Z,2.97
2023-03-18T18:34:15.382Z,3.05
2023-03-18T18:36:32.363Z,3.45
2023-03-18T18:38:49.310Z,3.88
2023-03-18T18:41:06.577Z,4.93
2023-03-18T18:43:23.670Z,10.13
2023-03-18T18:45:40.954Z,7.65
2023-03-18T18:47:57.913Z,6.97
2023-03-18T18:50:14.853Z,6.60
2023-03-18T18:52:31.865Z,4.13
2023-03-18T18:54:48.878Z,4.72
2023-03-18T18:57:05.799Z,5.38
2023-03-18T18:59:22.775Z,6.88
2023-03-18T19:01:39.885Z,7.72
2023-03-18T19:03:57.183Z,11.52
2023-03-18T19:06:14.148Z,12.38
2023-03-18T19:08:31.181Z,9.45
2023-03-18T19:10:48.217Z,11.00
2023-03-18T19:13:05.490Z,9.18
2023-03-18T19:15:22.736Z,9.45
2023-03-18T19:17:40.087Z,6.28
2023-03-18T19:19:57.148Z,4.20
2023-03-18T19:22:14.078Z,4.75
2023-03-18T19:24:31.172Z,4.43
2023-03-18T19:26:48.491Z,4.38
2023-03-18T19:29:05.786Z,3.90
2023-03-18T19:31:24.050Z,4.20
2023-03-18T19:33:41.456Z,4.60
2023-03-18T19:35:58.425Z,5.38
2023-03-18T19:38:15.379Z,4.05
2023-03-18T19:40:32.348Z,2.85
2023-03-18T19:42:49.297Z,3.30
2023-03-18T19:45:06.358Z,2.70
2023-03-18T19:47:23.347Z,4.00
2023-03-18T19:49:40.278Z,4.20
2023-03-18T19:51:57.663Z,3.53
2023-03-18T19:54:15.204Z,3.72
2023-03-18T19:56:33.131Z,4.80
2023-03-18T19:58:51.524Z,5.38
2023-03-18T20:01:08.842Z,6.43
2023-03-18T20:03:27.060Z,6.95
2023-03-18T20:05:44.163Z,5.80
2023-03-18T20:08:01.493Z,5.25
2023-03-18T20:10:18.420Z,7.25
2023-03-18T20:12:35.441Z,5.68
2023-03-18T20:14:52.484Z,4.85
2023-03-18T20:17:10.567Z,4.38
2023-03-18T20:19:27.819Z,4.20
2023-03-18T20:21:45.108Z,4.00
2023-03-18T20:24:02.013Z,5.30
2023-03-18T20:26:18.955Z,6.30
2023-03-18T20:28:35.897Z,7.10
2023-03-18T20:30:52.831Z,6.50
2023-03-18T20:33:09.984Z,6.40
2023-03-18T20:35:26.851Z,7.30
2023-03-18T20:37:43.780Z,9.88
2023-03-18T20:40:00.691Z,7.60
2023-03-18T20:42:17.752Z,4.95
2023-03-18T20:44:35.727Z,4.03
2023-03-18T20:46:53.039Z,4.15
2023-03-18T20:49:09.949Z,4.97
2023-03-18T20:51:26.805Z,5.35
2023-03-18T20:53:44.650Z,4.80
2023-03-18T20:56:01.705Z,4.45
2023-03-18T20:58:18.654Z,4.10
2023-03-18T21:00:35.587Z,3.85
2023-03-18T21:02:52.837Z,3.88
2023-03-18T21:05:10.141Z,3.58
2023-03-18T21:07:28.028Z,3.10
2023-03-18T21:09:44.976Z,3.03
2023-03-18T21:12:01.893Z,2.75
2023-03-18T21:14:18.779Z,2.90
2023-03-18T21:16:37.782Z,3.15
2023-03-18T21:18:54.914Z,3.70
2023-03-18T21:21:11.922Z,4.00
2023-03-18T21:23:28.983Z,4.10
2023-03-18T21:25:46.020Z,4.00
2023-03-18T21:28:02.989Z,4.10
2023-03-18T21:30:20.277Z,4.13
2023-03-18T21:32:37.654Z,3.80
2023-03-18T21:34:54.812Z,4.35
2023-03-18T21:37:11.867Z,5.00
2023-03-18T21:39:29.911Z,4.60
2023-03-18T21:41:46.824Z,4.60
2023-03-18T21:44:04.097Z,4.47
2023-03-18T21:46:22.137Z,4.82
2023-03-18T21:48:39.484Z,4.78
2023-03-18T21:50:56.589Z,4.00
2023-03-18T21:53:13.493Z,3.13
2023-03-18T21:55:30.443Z,3.50
2023-03-18T21:57:48.937Z,3.70
2023-03-18T22:00:06.693Z,3.25
2023-03-18T22:02:24.784Z,3.03
2023-03-18T22:04:41.979Z,3.20
2023-03-18T22:06:59.307Z,2.92
2023-03-18T22:09:16.696Z,3.30
2023-03-18T22:11:34.063Z,3.35
2023-03-18T22:13:51.305Z,3.40
2023-03-18T22:16:08.286Z,3.10
2023-03-18T22:18:25.303Z,3.47
2023-03-18T22:20:42.346Z,3.80
2023-03-18T22:23:00.424Z,4.07
2023-03-18T22:25:17.394Z,4.20
2023-03-18T22:27:34.325Z,4.35
2023-03-18T22:29:51.501Z,3.33
2023-03-18T22:32:08.526Z,3.47
2023-03-18T22:34:25.426Z,3.42
2023-03-18T22:36:43.510Z,3.50
2023-03-18T22:39:00.375Z,3.50
2023-03-18T22:41:17.292Z,3.60
2023-03-18T22:43:34.781Z,3.80
2023-03-18T22:45:52.189Z,3.47
2023-03-18T22:48:09.236Z,3.80
2023-03-18T22:50:26.474Z,3.60
2023-03-18T22:52:43.721Z,3.45
2023-03-18T22:55:00.698Z,3.75
2023-03-18T22:57:17.630Z,3.63
2023-03-18T22:59:34.705Z,3.30
2023-03-18T23:01:51.782Z,3.88
2023-03-18T23:04:09.009Z,3.80
2023-03-18T23:06:25.989Z,3.92
2023-03-18T23:08:43.071Z,3.80
2023-03-18T23:11:00.307Z,3.88
2023-03-18T23:13:17.234Z,3.72
2023-03-18T23:15:34.573Z,3.80
2023-03-18T23:17:51.792Z,3.53
2023-03-18T23:20:08.827Z,3.53
2023-03-18T23:22:25.845Z,3.67
2023-03-18T23:24:42.859Z,3.92
2023-03-18T23:27:00.167Z,3.45
2023-03-18T23:29:17.040Z,3.53
2023-03-18T23:31:35.158Z,3.35
2023-03-18T23:33:52.092Z,3.33
2023-03-18T23:36:09.134Z,3.00
2023-03-18T23:38:26.171Z,3.30
2023-03-18T23:40:43.097Z,3.03
2023-03-18T23:43:00.096Z,3.35
2023-03-18T23:45:17.399Z,3.53
2023-03-18T23:47:34.423Z,3.72
2023-03-18T23:49:51.354Z,3.90
2023-03-18T23:52:08.624Z,3.30
2023-03-18T23:54:25.545Z,3.38
2023-03-18T23:56:42.564Z,3.30
2023-03-18T23:58:59.900Z,3.72
